»·PEaware :: N46AN KLAX-KSAN

N46AN :: KLAX-KSAN

FLIGHT INFORMATION

Flight Status: Arrived
Operator: Privately registered:
United States
More flights under this callsign
Pilot: Carson T. (20437)
Aircraft: CESSNA 172 SKYHAWK
(C172)
More flights by this aircraft type
Origin: KLAX Los Angeles Intl
United States
Destination: KSAN San Diego Intl-Lindbergh
United States
More flights between these airports :: More routes between these airports
Route:
File this flight plan on PilotEdge
Remarks:
Altitude:
(Current/Filed)
7,500ft
Speed:
(Current/Filed)
120kts
Departed: 17-Sep-18 01:50 PM
Arrived: 17-Sep-18 02:55 PM
Distance/Time
Traveled:
95nm/1:05
Distance/Time
To Go:
Arrived

Flight Plot

Page will automatically refresh every two minutes.


Map Options




Map Legend


Flown Route
Filed Route
Departure Airport
Arrival Airport
Navaid (VOR, NDB)
Fix

Horizontal Profiles

Position Reports

Time Latitude Longitude Heading Altitude Ground
Speed
17-Sep-18 13:31 33.941532 -118.394096 269 129ft 0kts
17-Sep-18 13:32 33.941532 -118.394096 269 129ft 0kts
17-Sep-18 13:33 33.941532 -118.394096 269 129ft 0kts
17-Sep-18 13:34 33.941532 -118.394096 269 129ft 0kts
17-Sep-18 13:35 33.941532 -118.394096 269 129ft 0kts
17-Sep-18 13:36 33.941532 -118.394096 269 129ft 0kts
17-Sep-18 13:37 33.941532 -118.394096 269 129ft 0kts
17-Sep-18 13:38 33.941532 -118.394096 269 129ft 0kts
17-Sep-18 13:39 33.941532 -118.394096 269 129ft 0kts
17-Sep-18 13:40 33.941532 -118.394096 269 129ft 0kts
17-Sep-18 13:41 33.941532 -118.394096 269 129ft 0kts
17-Sep-18 13:42 33.941532 -118.394096 269 129ft 0kts
17-Sep-18 13:43 33.941532 -118.394097 269 129ft 0kts
17-Sep-18 13:44 33.941532 -118.394097 269 129ft 0kts
17-Sep-18 13:45 33.940585 -118.393975 104 129ft 10kts
17-Sep-18 13:46 33.940232 -118.390150 158 129ft 9kts
17-Sep-18 13:47 33.940269 -118.385730 83 129ft 14kts
17-Sep-18 13:48 33.940707 -118.381511 83 129ft 10kts
17-Sep-18 13:49 33.940639 -118.380506 130 129ft 0kts
17-Sep-18 13:50 33.940639 -118.380506 130 129ft 0kts
17-Sep-18 13:51 33.940499 -118.380331 137 129ft 11kts
17-Sep-18 13:52 33.938013 -118.398644 261 318ft 94kts
17-Sep-18 13:53 33.934809 -118.430969 263 957ft 96kts
17-Sep-18 13:54 33.924209 -118.453618 170 1684ft 84kts
17-Sep-18 13:55 33.901089 -118.450091 175 2392ft 83kts
17-Sep-18 13:56 33.879872 -118.439722 155 3007ft 88kts
17-Sep-18 13:57 33.852452 -118.423641 152 3004ft 121kts
17-Sep-18 13:58 33.828213 -118.399273 123 3393ft 103kts
17-Sep-18 13:59 33.814827 -118.366079 107 3506ft 120kts
17-Sep-18 14:00 33.805336 -118.326747 105 3500ft 123kts
17-Sep-18 14:01 33.788440 -118.291795 134 3500ft 123kts
17-Sep-18 14:02 33.765590 -118.263570 133 3820ft 104kts
17-Sep-18 14:03 33.747316 -118.240221 137 4423ft 89kts
17-Sep-18 14:04 33.728403 -118.222637 146 4977ft 86kts
17-Sep-18 14:05 33.708415 -118.205690 142 5476ft 90kts
17-Sep-18 14:06 33.684668 -118.184224 141 5506ft 119kts
17-Sep-18 14:07 33.658249 -118.158475 140 5500ft 123kts
17-Sep-18 14:08 33.631329 -118.132653 142 5500ft 124kts
17-Sep-18 14:09 33.604468 -118.106687 140 5500ft 124kts
17-Sep-18 14:10 33.578620 -118.079150 133 5500ft 124kts
17-Sep-18 14:11 33.554764 -118.049209 135 5499ft 124kts
17-Sep-18 14:12 33.528941 -118.021732 140 5500ft 124kts
17-Sep-18 14:13 33.501596 -117.996482 143 5500ft 124kts
17-Sep-18 14:14 33.474073 -117.971778 142 5500ft 124kts
17-Sep-18 14:15 33.448014 -117.947099 140 5758ft 109kts
17-Sep-18 14:16 33.426039 -117.924850 139 6226ft 99kts
17-Sep-18 14:17 33.405940 -117.903743 138 6705ft 93kts
17-Sep-18 14:18 33.386473 -117.883284 138 7133ft 95kts
17-Sep-18 14:19 33.365669 -117.861491 138 7454ft 102kts
17-Sep-18 14:20 33.342238 -117.837702 140 7504ft 118kts
17-Sep-18 14:21 33.316240 -117.812491 141 7500ft 121kts
17-Sep-18 14:22 33.289789 -117.787341 141 7499ft 121kts
17-Sep-18 14:23 33.263760 -117.762382 140 7499ft 120kts
17-Sep-18 14:24 33.237621 -117.736718 139 7499ft 120kts
17-Sep-18 14:25 33.212142 -117.710579 139 7500ft 120kts
17-Sep-18 14:26 33.186682 -117.684420 139 7500ft 120kts
17-Sep-18 14:27 33.160998 -117.658494 140 7500ft 120kts
17-Sep-18 14:28 33.135118 -117.632882 140 7500ft 120kts
17-Sep-18 14:29 33.109161 -117.607439 140 7500ft 120kts
17-Sep-18 14:30 33.083080 -117.582147 140 7500ft 120kts
17-Sep-18 14:31 33.057005 -117.556865 140 7500ft 120kts
17-Sep-18 14:32 33.058224 -117.526353 12 7500ft 120kts
17-Sep-18 14:33 33.067627 -117.552182 213 7500ft 120kts
17-Sep-18 14:34 33.053379 -117.531477 44 7500ft 119kts
17-Sep-18 14:35 33.068118 -117.549421 223 7500ft 119kts
17-Sep-18 14:36 33.056678 -117.530890 27 7499ft 119kts
17-Sep-18 14:37 33.060696 -117.550639 166 7249ft 116kts
17-Sep-18 14:38 33.069442 -117.542719 270 6648ft 114kts
17-Sep-18 14:39 33.050151 -117.537954 84 6061ft 115kts
17-Sep-18 14:40 33.063278 -117.501085 71 5113ft 124kts
17-Sep-18 14:41 33.075372 -117.462247 68 4112ft 124kts
17-Sep-18 14:42 33.078005 -117.424371 121 3489ft 111kts
17-Sep-18 14:43 33.055487 -117.395437 134 3501ft 123kts
17-Sep-18 14:44 33.030933 -117.366335 135 3500ft 124kts
17-Sep-18 14:45 33.005638 -117.337964 137 3500ft 125kts
17-Sep-18 14:46 32.979696 -117.310533 139 3500ft 125kts
17-Sep-18 14:47 32.949397 -117.290290 156 3500ft 125kts
17-Sep-18 14:48 32.917764 -117.273210 154 3500ft 125kts
17-Sep-18 14:49 32.886550 -117.255064 154 3500ft 125kts
17-Sep-18 14:50 32.854850 -117.238222 157 3500ft 125kts
17-Sep-18 14:51 32.825355 -117.223778 159 3493ft 102kts
17-Sep-18 14:52 32.797535 -117.213432 164 3100ft 101kts
17-Sep-18 14:53 32.771232 -117.205014 164 2170ft 97kts
17-Sep-18 14:54 32.752522 -117.185082 118 1421ft 91kts
17-Sep-18 14:55 32.738113 -117.166618 175 837ft 74kts
17-Sep-18 14:56 32.731154 -117.179844 286 80ft 63kts
17-Sep-18 14:57 32.733337 -117.190371 186 18ft 6kts
17-Sep-18 14:58 32.732788 -117.190541 257 18ft 1kts
17-Sep-18 14:59 32.733526 -117.193418 285 18ft 9kts
17-Sep-18 15:00 32.732132 -117.192518 111 18ft 0kts

Navigation Log

Ident Type
1. KLAX Airport
2. KSAN Airport